sensor_id;sensor_type;location;lat;lon;timestamp;temperature;humidity
19646;DHT22;9971;52.446;13.452;2024-01-15T00:04:16;5.10;99.90
19646;DHT22;9971;52.446;13.452;2024-01-15T00:09:18;5.00;99.90
19646;DHT22;9971;52.446;13.452;2024-01-15T00:14:20;4.90;99.90
19646;DHT22;9971;52.446;13.452;2024-01-15T00:19:23;4.80;99.90
19646;DHT22;9971;52.446;13.452;2024-01-15T00:24:25;4.70;99.90
19646;DHT22;9971;52.446;13.452;2024-01-15T00:29:27;4.80;99.90
19646;DHT22;9971;52.446;13.452;2024-01-15T00:34:30;4.70;99.90
19646;DHT22;9971;52.446;13.452;2024-01-15T00:39:32;4.70;99.90
19646;DHT22;9971;52.446;13.452;2024-01-15T00:44:34;4.80;99.90
19646;DHT22;9971;52.446;13.452;2024-01-15T00:49:37;4.70;99.90
19646;DHT22;9971;52.446;13.452;2024-01-15T00:54:39;4.80;99.90
19646;DHT22;9971;52.446;13.452;2024-01-15T00:59:42;4.80;99.90
19646;DHT22;9971;52.446;13.452;2024-01-15T01:04:44;4.90;99.90
19646;DHT22;9971;52.446;13.452;2024-01-15T01:09:47;4.90;99.90
19646;DHT22;9971;52.446;13.452;2024-01-15T01:14:49;4.80;99.90
19646;DHT22;9971;52.446;13.452;2024-01-15T01:19:51;4.80;99.90
19646;DHT22;9971;52.446;13.452;2024-01-15T01:24:54;4.80;99.90
19646;DHT22;9971;52.446;13.452;2024-01-15T01:29:56;4.80;99.90
19646;DHT22;9971;52.446;13.452;2024-01-15T01:34:59;4.80;99.90
19646;DHT22;9971;52.446;13.452;2024-01-15T01:40:01;4.80;99.90
19646;DHT22;9971;52.446;13.452;2024-01-15T01:45:04;4.80;99.90
19646;DHT22;9971;52.446;13.452;2024-01-15T01:50:07;4.60;99.90
19646;DHT22;9971;52.446;13.452;2024-01-15T01:55:10;4.50;99.90
19646;DHT22;9971;52.446;13.452;2024-01-15T02:00:12;4.40;99.90
19646;DHT22;9971;52.446;13.452;2024-01-15T02:05:15;4.40;99.90
19646;DHT22;9971;52.446;13.452;2024-01-15T02:10:17;4.40;99.90
19646;DHT22;9971;52.446;13.452;2024-01-15T02:15:20;4.50;99.90
19646;DHT22;9971;52.446;13.452;2024-01-15T02:20:22;4.60;99.90
19646;DHT22;9971;52.446;13.452;2024-01-15T02:25:25;4.50;99.90
19646;DHT22;9971;52.446;13.452;2024-01-15T02:30:27;4.50;99.90
19646;DHT22;9971;52.446;13.452;2024-01-15T02:35:29;4.50;99.90
19646;DHT22;9971;52.446;13.452;2024-01-15T02:40:32;4.50;99.90
19646;DHT22;9971;52.446;13.452;2024-01-15T02:45:34;4.50;99.90
19646;DHT22;9971;52.446;13.452;2024-01-15T02:50:36;4.50;99.90
19646;DHT22;9971;52.446;13.452;2024-01-15T02:55:39;4.50;99.90
19646;DHT22;9971;52.446;13.452;2024-01-15T03:00:41;4.50;99.90
19646;DHT22;9971;52.446;13.452;2024-01-15T03:05:44;4.50;99.90
19646;DHT22;9971;52.446;13.452;2024-01-15T03:10:46;4.50;99.90
19646;DHT22;9971;52.446;13.452;2024-01-15T03:15:49;4.50;99.90
19646;DHT22;9971;52.446;13.452;2024-01-15T03:20:51;4.50;99.90
19646;DHT22;9971;52.446;13.452;2024-01-15T03:25:53;4.50;99.90
19646;DHT22;9971;52.446;13.452;2024-01-15T03:30:56;4.50;99.90
19646;DHT22;9971;52.446;13.452;2024-01-15T03:35:58;4.50;99.90
19646;DHT22;9971;52.446;13.452;2024-01-15T03:41:01;4.50;99.90
19646;DHT22;9971;52.446;13.452;2024-01-15T03:46:03;4.50;99.90
19646;DHT22;9971;52.446;13.452;2024-01-15T03:51:05;4.60;99.90
19646;DHT22;9971;52.446;13.452;2024-01-15T03:56:07;4.60;99.90
19646;DHT22;9971;52.446;13.452;2024-01-15T04:01:09;4.60;99.90
19646;DHT22;9971;52.446;13.452;2024-01-15T04:06:12;4.60;99.90
19646;DHT22;9971;52.446;13.452;2024-01-15T04:11:14;4.60;99.90
19646;DHT22;9971;52.446;13.452;2024-01-15T04:16:17;4.70;99.90
19646;DHT22;9971;52.446;13.452;2024-01-15T04:21:19;4.70;99.90
19646;DHT22;9971;52.446;13.452;2024-01-15T04:26:21;4.70;99.90
19646;DHT22;9971;52.446;13.452;2024-01-15T04:31:24;4.70;99.90
19646;DHT22;9971;52.446;13.452;2024-01-15T04:36:26;4.70;99.90
19646;DHT22;9971;52.446;13.452;2024-01-15T04:41:28;4.70;99.90
19646;DHT22;9971;52.446;13.452;2024-01-15T04:46:31;4.80;99.90
19646;DHT22;9971;52.446;13.452;2024-01-15T04:51:33;4.80;99.90
19646;DHT22;9971;52.446;13.452;2024-01-15T04:56:35;4.80;99.90
19646;DHT22;9971;52.446;13.452;2024-01-15T05:01:38;4.80;99.90
19646;DHT22;9971;52.446;13.452;2024-01-15T05:06:40;4.70;99.90
19646;DHT22;9971;52.446;13.452;2024-01-15T05:11:42;5.10;99.90
19646;DHT22;9971;52.446;13.452;2024-01-15T05:16:47;6.00;99.90
19646;DHT22;9971;52.446;13.452;2024-01-15T05:21:49;7.00;99.90
19646;DHT22;9971;52.446;13.452;2024-01-15T05:26:52;7.80;99.90
19646;DHT22;9971;52.446;13.452;2024-01-15T05:31:54;8.50;99.90
19646;DHT22;9971;52.446;13.452;2024-01-15T05:36:57;9.10;99.90
19646;DHT22;9971;52.446;13.452;2024-01-15T05:41:59;9.60;99.90
19646;DHT22;9971;52.446;13.452;2024-01-15T05:47:01;10.10;99.90
19646;DHT22;9971;52.446;13.452;2024-01-15T05:52:04;10.50;99.90
19646;DHT22;9971;52.446;13.452;2024-01-15T05:57:06;10.80;99.90
19646;DHT22;9971;52.446;13.452;2024-01-15T06:02:09;11.10;99.90
19646;DHT22;9971;52.446;13.452;2024-01-15T06:07:11;11.30;99.90
19646;DHT22;9971;52.446;13.452;2024-01-15T06:12:14;11.50;99.90
19646;DHT22;9971;52.446;13.452;2024-01-15T06:17:16;11.70;99.90
19646;DHT22;9971;52.446;13.452;2024-01-15T06:22:19;11.80;99.90
19646;DHT22;9971;52.446;13.452;2024-01-15T06:27:21;12.00;99.90
19646;DHT22;9971;52.446;13.452;2024-01-15T06:32:23;12.00;99.90
19646;DHT22;9971;52.446;13.452;2024-01-15T06:37:25;12.20;99.90
19646;DHT22;9971;52.446;13.452;2024-01-15T06:42:28;12.30;99.90
19646;DHT22;9971;52.446;13.452;2024-01-15T06:47:31;12.40;99.50
19646;DHT22;9971;52.446;13.452;2024-01-15T06:52:33;12.40;98.90
19646;DHT22;9971;52.446;13.452;2024-01-15T06:57:35;12.50;98.50
19646;DHT22;9971;52.446;13.452;2024-01-15T07:02:38;12.50;96.90
19646;DHT22;9971;52.446;13.452;2024-01-15T07:07:40;12.40;97.10
19646;DHT22;9971;52.446;13.452;2024-01-15T07:12:43;12.50;97.50
19646;DHT22;9971;52.446;13.452;2024-01-15T07:17:45;12.70;95.70
19646;DHT22;9971;52.446;13.452;2024-01-15T07:22:47;12.60;94.40
19646;DHT22;9971;52.446;13.452;2024-01-15T07:27:50;12.70;94.80
19646;DHT22;9971;52.446;13.452;2024-01-15T07:32:52;12.70;94.30
19646;DHT22;9971;52.446;13.452;2024-01-15T07:37:55;12.60;93.90
19646;DHT22;9971;52.446;13.452;2024-01-15T07:42:57;12.60;94.30
19646;DHT22;9971;52.446;13.452;2024-01-15T07:48:00;12.50;93.90
19646;DHT22;9971;52.446;13.452;2024-01-15T07:53:02;12.40;93.20
19646;DHT22;9971;52.446;13.452;2024-01-15T07:58:05;12.40;93.20
19646;DHT22;9971;52.446;13.452;2024-01-15T08:03:07;12.40;94.30
19646;DHT22;9971;52.446;13.452;2024-01-15T08:08:10;12.40;94.70
19646;DHT22;9971;52.446;13.452;2024-01-15T08:13:17;12.50;93.80
19646;DHT22;9971;52.446;13.452;2024-01-15T08:18:19;12.60;93.00
19646;DHT22;9971;52.446;13.452;2024-01-15T08:23:21;12.70;93.40
19646;DHT22;9971;52.446;13.452;2024-01-15T08:28:23;12.70;93.70
19646;DHT22;9971;52.446;13.452;2024-01-15T08:33:26;12.60;93.30
19646;DHT22;9971;52.446;13.452;2024-01-15T08:38:28;12.80;93.60
19646;DHT22;9971;52.446;13.452;2024-01-15T08:43:31;12.90;93.30
19646;DHT22;9971;52.446;13.452;2024-01-15T08:48:33;13.00;92.40
19646;DHT22;9971;52.446;13.452;2024-01-15T08:53:36;13.00;91.90
19646;DHT22;9971;52.446;13.452;2024-01-15T08:58:38;13.20;93.00
19646;DHT22;9971;52.446;13.452;2024-01-15T09:03:41;13.40;92.30
19646;DHT22;9971;52.446;13.452;2024-01-15T09:08:44;13.40;90.50
19646;DHT22;9971;52.446;13.452;2024-01-15T09:13:46;13.20;91.40
19646;DHT22;9971;52.446;13.452;2024-01-15T09:18:48;13.10;90.30
19646;DHT22;9971;52.446;13.452;2024-01-15T09:23:50;13.00;91.70
19646;DHT22;9971;52.446;13.452;2024-01-15T09:28:53;12.80;92.10
19646;DHT22;9971;52.446;13.452;2024-01-15T09:33:55;12.80;91.00
19646;DHT22;9971;52.446;13.452;2024-01-15T09:38:58;12.90;91.70
19646;DHT22;9971;52.446;13.452;2024-01-15T09:44:00;12.80;91.30
19646;DHT22;9971;52.446;13.452;2024-01-15T09:49:02;12.70;91.50
19646;DHT22;9971;52.446;13.452;2024-01-15T09:54:04;12.80;92.30
19646;DHT22;9971;52.446;13.452;2024-01-15T09:59:06;13.00;91.40
19646;DHT22;9971;52.446;13.452;2024-01-15T10:04:09;12.80;91.90
19646;DHT22;9971;52.446;13.452;2024-01-15T10:09:12;12.90;92.10
19646;DHT22;9971;52.446;13.452;2024-01-15T10:14:13;12.80;92.20
19646;DHT22;9971;52.446;13.452;2024-01-15T10:19:15;12.90;91.20
19646;DHT22;9971;52.446;13.452;2024-01-15T10:24:17;12.80;91.40
19646;DHT22;9971;52.446;13.452;2024-01-15T10:29:20;12.70;90.90
19646;DHT22;9971;52.446;13.452;2024-01-15T10:34:23;12.60;91.70
19646;DHT22;9971;52.446;13.452;2024-01-15T10:39:25;12.50;92.30
19646;DHT22;9971;52.446;13.452;2024-01-15T10:44:27;12.50;91.60
19646;DHT22;9971;52.446;13.452;2024-01-15T10:49:30;12.50;91.70
19646;DHT22;9971;52.446;13.452;2024-01-15T10:54:32;12.70;91.50
19646;DHT22;9971;52.446;13.452;2024-01-15T10:59:35;12.40;91.20
19646;DHT22;9971;52.446;13.452;2024-01-15T11:04:37;12.40;91.60
19646;DHT22;9971;52.446;13.452;2024-01-15T11:09:39;12.40;91.40
19646;DHT22;9971;52.446;13.452;2024-01-15T11:14:41;12.30;91.40
19646;DHT22;9971;52.446;13.452;2024-01-15T11:19:45;12.30;91.10
19646;DHT22;9971;52.446;13.452;2024-01-15T11:24:46;12.40;91.80
19646;DHT22;9971;52.446;13.452;2024-01-15T11:29:49;12.20;91.20
19646;DHT22;9971;52.446;13.452;2024-01-15T11:34:57;12.10;92.50
19646;DHT22;9971;52.446;13.452;2024-01-15T11:40:01;12.10;92.00
19646;DHT22;9971;52.446;13.452;2024-01-15T11:45:02;12.20;92.00
19646;DHT22;9971;52.446;13.452;2024-01-15T11:50:06;12.30;92.30
19646;DHT22;9971;52.446;13.452;2024-01-15T11:55:12;12.30;92.10
19646;DHT22;9971;52.446;13.452;2024-01-15T12:00:13;12.30;93.00
19646;DHT22;9971;52.446;13.452;2024-01-15T12:05:16;12.40;92.70
19646;DHT22;9971;52.446;13.452;2024-01-15T12:10:18;12.40;93.30
19646;DHT22;9971;52.446;13.452;2024-01-15T12:15:20;12.30;92.40
19646;DHT22;9971;52.446;13.452;2024-01-15T12:20:22;12.40;93.00
19646;DHT22;9971;52.446;13.452;2024-01-15T12:25:24;12.40;93.60
19646;DHT22;9971;52.446;13.452;2024-01-15T12:30:27;12.30;93.10
19646;DHT22;9971;52.446;13.452;2024-01-15T12:35:29;12.30;92.70
19646;DHT22;9971;52.446;13.452;2024-01-15T12:40:31;12.30;93.10
19646;DHT22;9971;52.446;13.452;2024-01-15T12:45:33;12.30;91.80
19646;DHT22;9971;52.446;13.452;2024-01-15T12:50:35;12.40;92.60
19646;DHT22;9971;52.446;13.452;2024-01-15T12:55:38;12.40;92.60
19646;DHT22;9971;52.446;13.452;2024-01-15T13:00:40;12.40;93.60
19646;DHT22;9971;52.446;13.452;2024-01-15T13:05:43;12.50;94.40
19646;DHT22;9971;52.446;13.452;2024-01-15T13:10:45;12.60;93.30
19646;DHT22;9971;52.446;13.452;2024-01-15T13:15:47;12.70;93.30
19646;DHT22;9971;52.446;13.452;2024-01-15T13:20:50;12.60;93.70
19646;DHT22;9971;52.446;13.452;2024-01-15T13:25:52;12.70;92.80
19646;DHT22;9971;52.446;13.452;2024-01-15T13:30:55;12.70;93.50
19646;DHT22;9971;52.446;13.452;2024-01-15T13:35:57;12.80;92.70
19646;DHT22;9971;52.446;13.452;2024-01-15T13:41:00;12.90;92.70
19646;DHT22;9971;52.446;13.452;2024-01-15T13:46:02;12.90;92.30
19646;DHT22;9971;52.446;13.452;2024-01-15T13:51:04;13.00;92.80
19646;DHT22;9971;52.446;13.452;2024-01-15T13:56:07;13.10;92.20
19646;DHT22;9971;52.446;13.452;2024-01-15T14:01:09;13.20;92.80
19646;DHT22;9971;52.446;13.452;2024-01-15T14:06:10;13.30;91.50
19646;DHT22;9971;52.446;13.452;2024-01-15T14:11:13;13.30;92.20
19646;DHT22;9971;52.446;13.452;2024-01-15T14:16:15;13.30;90.80
19646;DHT22;9971;52.446;13.452;2024-01-15T14:21:18;13.20;91.00
19646;DHT22;9971;52.446;13.452;2024-01-15T14:26:20;13.30;91.30
19646;DHT22;9971;52.446;13.452;2024-01-15T14:31:23;13.10;91.20
19646;DHT22;9971;52.446;13.452;2024-01-15T14:36:25;13.20;91.10
19646;DHT22;9971;52.446;13.452;2024-01-15T14:41:27;13.30;91.70
19646;DHT22;9971;52.446;13.452;2024-01-15T14:46:30;13.40;90.10
19646;DHT22;9971;52.446;13.452;2024-01-15T14:51:32;13.50;90.60
19646;DHT22;9971;52.446;13.452;2024-01-15T14:56:35;13.60;90.80
19646;DHT22;9971;52.446;13.452;2024-01-15T15:01:37;13.60;89.90
19646;DHT22;9971;52.446;13.452;2024-01-15T15:06:39;13.70;89.70
19646;DHT22;9971;52.446;13.452;2024-01-15T15:11:42;13.80;88.70
19646;DHT22;9971;52.446;13.452;2024-01-15T15:16:44;13.80;86.10
19646;DHT22;9971;52.446;13.452;2024-01-15T15:21:49;13.70;86.50
19646;DHT22;9971;52.446;13.452;2024-01-15T15:26:51;13.90;88.80
19646;DHT22;9971;52.446;13.452;2024-01-15T15:31:54;13.90;86.40
19646;DHT22;9971;52.446;13.452;2024-01-15T15:36:56;13.90;88.00
19646;DHT22;9971;52.446;13.452;2024-01-15T15:41:58;14.10;88.00
19646;DHT22;9971;52.446;13.452;2024-01-15T15:47:01;14.30;86.60
19646;DHT22;9971;52.446;13.452;2024-01-15T15:52:03;14.40;86.10
19646;DHT22;9971;52.446;13.452;2024-01-15T15:57:05;14.60;85.60
19646;DHT22;9971;52.446;13.452;2024-01-15T16:02:08;14.70;86.90
19646;DHT22;9971;52.446;13.452;2024-01-15T16:07:10;14.80;86.20
19646;DHT22;9971;52.446;13.452;2024-01-15T16:12:13;14.90;87.00
19646;DHT22;9971;52.446;13.452;2024-01-15T16:17:15;15.00;87.70
19646;DHT22;9971;52.446;13.452;2024-01-15T16:22:18;15.00;89.20
19646;DHT22;9971;52.446;13.452;2024-01-15T16:27:20;15.00;87.70
19646;DHT22;9971;52.446;13.452;2024-01-15T16:32:23;15.00;85.90
19646;DHT22;9971;52.446;13.452;2024-01-15T16:37:26;15.00;90.20
19646;DHT22;9971;52.446;13.452;2024-01-15T16:42:28;15.00;85.90
19646;DHT22;9971;52.446;13.452;2024-01-15T16:47:30;15.00;87.40
19646;DHT22;9971;52.446;13.452;2024-01-15T16:52:32;15.10;87.20
19646;DHT22;9971;52.446;13.452;2024-01-15T16:57:35;15.10;87.00
19646;DHT22;9971;52.446;13.452;2024-01-15T17:02:37;15.30;86.40
19646;DHT22;9971;52.446;13.452;2024-01-15T17:07:40;15.40;86.10
19646;DHT22;9971;52.446;13.452;2024-01-15T17:12:42;15.50;85.40
19646;DHT22;9971;52.446;13.452;2024-01-15T17:17:45;15.50;85.20
19646;DHT22;9971;52.446;13.452;2024-01-15T17:22:47;7.60;99.90
19646;DHT22;9971;52.446;13.452;2024-01-15T17:27:49;5.40;99.90
19646;DHT22;9971;52.446;13.452;2024-01-15T17:32:52;4.70;99.90
19646;DHT22;9971;52.446;13.452;2024-01-15T17:37:54;4.40;99.90
19646;DHT22;9971;52.446;13.452;2024-01-15T17:42:57;4.20;99.90
19646;DHT22;9971;52.446;13.452;2024-01-15T17:47:59;4.20;99.90
19646;DHT22;9971;52.446;13.452;2024-01-15T17:53:02;4.20;99.90
19646;DHT22;9971;52.446;13.452;2024-01-15T17:58:07;4.20;99.90
19646;DHT22;9971;52.446;13.452;2024-01-15T18:03:10;4.20;99.90
19646;DHT22;9971;52.446;13.452;2024-01-15T18:08:12;5.00;99.90
19646;DHT22;9971;52.446;13.452;2024-01-15T18:13:15;6.10;99.90
19646;DHT22;9971;52.446;13.452;2024-01-15T18:18:17;7.10;99.90
19646;DHT22;9971;52.446;13.452;2024-01-15T18:23:20;8.00;99.90
19646;DHT22;9971;52.446;13.452;2024-01-15T18:28:22;8.80;99.90
19646;DHT22;9971;52.446;13.452;2024-01-15T18:33:25;9.50;99.90
19646;DHT22;9971;52.446;13.452;2024-01-15T18:38:27;10.10;99.90
19646;DHT22;9971;52.446;13.452;2024-01-15T18:43:30;10.70;99.90
19646;DHT22;9971;52.446;13.452;2024-01-15T18:48:32;11.10;99.90
19646;DHT22;9971;52.446;13.452;2024-01-15T18:53:34;11.50;99.90
19646;DHT22;9971;52.446;13.452;2024-01-15T18:58:37;11.90;99.90
19646;DHT22;9971;52.446;13.452;2024-01-15T19:03:39;12.30;99.90
19646;DHT22;9971;52.446;13.452;2024-01-15T19:08:41;12.60;99.90
19646;DHT22;9971;52.446;13.452;2024-01-15T19:13:44;12.90;99.90
19646;DHT22;9971;52.446;13.452;2024-01-15T19:18:46;13.20;99.90
19646;DHT22;9971;52.446;13.452;2024-01-15T19:23:48;13.50;99.90
19646;DHT22;9971;52.446;13.452;2024-01-15T19:28:51;13.70;96.00
19646;DHT22;9971;52.446;13.452;2024-01-15T19:33:53;13.90;93.50
19646;DHT22;9971;52.446;13.452;2024-01-15T19:38:56;14.20;93.10
19646;DHT22;9971;52.446;13.452;2024-01-15T19:43:58;14.40;94.60
19646;DHT22;9971;52.446;13.452;2024-01-15T19:49:01;14.60;88.90
19646;DHT22;9971;52.446;13.452;2024-01-15T19:54:03;14.80;83.50
19646;DHT22;9971;52.446;13.452;2024-01-15T19:59:06;14.90;79.40
19646;DHT22;9971;52.446;13.452;2024-01-15T20:04:08;15.10;77.90
19646;DHT22;9971;52.446;13.452;2024-01-15T20:09:11;15.30;75.80
19646;DHT22;9971;52.446;13.452;2024-01-15T20:14:14;15.40;74.10
19646;DHT22;9971;52.446;13.452;2024-01-15T20:19:16;15.50;72.00
19646;DHT22;9971;52.446;13.452;2024-01-15T20:24:18;15.70;74.70
19646;DHT22;9971;52.446;13.452;2024-01-15T20:29:20;15.90;79.20
19646;DHT22;9971;52.446;13.452;2024-01-15T20:34:23;16.00;77.60
19646;DHT22;9971;52.446;13.452;2024-01-15T20:39:25;16.10;72.90
19646;DHT22;9971;52.446;13.452;2024-01-15T20:44:28;16.20;69.80
19646;DHT22;9971;52.446;13.452;2024-01-15T20:49:30;16.30;65.30
19646;DHT22;9971;52.446;13.452;2024-01-15T20:54:33;16.40;63.40
19646;DHT22;9971;52.446;13.452;2024-01-15T20:59:35;16.50;63.80
19646;DHT22;9971;52.446;13.452;2024-01-15T21:04:38;16.60;61.30
19646;DHT22;9971;52.446;13.452;2024-01-15T21:09:40;16.60;61.20
19646;DHT22;9971;52.446;13.452;2024-01-15T21:14:44;16.80;61.60
19646;DHT22;9971;52.446;13.452;2024-01-15T21:19:46;16.80;59.50
19646;DHT22;9971;52.446;13.452;2024-01-15T21:24:49;16.90;59.60
19646;DHT22;9971;52.446;13.452;2024-01-15T21:29:51;17.00;58.50
19646;DHT22;9971;52.446;13.452;2024-01-15T21:34:54;17.00;57.60
19646;DHT22;9971;52.446;13.452;2024-01-15T21:39:56;17.10;56.60
19646;DHT22;9971;52.446;13.452;2024-01-15T21:44:59;17.20;56.80
19646;DHT22;9971;52.446;13.452;2024-01-15T21:50:01;17.20;56.80
19646;DHT22;9971;52.446;13.452;2024-01-15T21:55:04;17.20;55.40
19646;DHT22;9971;52.446;13.452;2024-01-15T22:00:06;17.20;56.00
19646;DHT22;9971;52.446;13.452;2024-01-15T22:05:08;17.30;56.00
19646;DHT22;9971;52.446;13.452;2024-01-15T22:10:11;17.30;65.40
19646;DHT22;9971;52.446;13.452;2024-01-15T22:15:13;17.40;61.30
19646;DHT22;9971;52.446;13.452;2024-01-15T22:20:16;17.50;60.80
19646;DHT22;9971;52.446;13.452;2024-01-15T22:25:19;17.50;58.90
19646;DHT22;9971;52.446;13.452;2024-01-15T22:30:21;17.60;59.10
19646;DHT22;9971;52.446;13.452;2024-01-15T22:35:23;17.70;58.10
19646;DHT22;9971;52.446;13.452;2024-01-15T22:40:27;17.80;56.40
19646;DHT22;9971;52.446;13.452;2024-01-15T22:45:30;17.80;53.80
19646;DHT22;9971;52.446;13.452;2024-01-15T22:50:32;17.80;54.30
19646;DHT22;9971;52.446;13.452;2024-01-15T22:55:35;17.90;53.70
19646;DHT22;9971;52.446;13.452;2024-01-15T23:00:37;17.90;54.20
19646;DHT22;9971;52.446;13.452;2024-01-15T23:05:40;18.00;53.90
19646;DHT22;9971;52.446;13.452;2024-01-15T23:10:42;18.00;52.90
19646;DHT22;9971;52.446;13.452;2024-01-15T23:15:45;18.00;52.90
19646;DHT22;9971;52.446;13.452;2024-01-15T23:20:47;18.00;53.20
19646;DHT22;9971;52.446;13.452;2024-01-15T23:25:50;18.10;67.00
19646;DHT22;9971;52.446;13.452;2024-01-15T23:30:52;18.20;70.80
19646;DHT22;9971;52.446;13.452;2024-01-15T23:35:55;18.20;65.80
19646;DHT22;9971;52.446;13.452;2024-01-15T23:40:57;18.30;64.60
19646;DHT22;9971;52.446;13.452;2024-01-15T23:46:00;18.30;61.60
19646;DHT22;9971;52.446;13.452;2024-01-15T23:51:02;7.70;77.30
19646;DHT22;9971;52.446;13.452;2024-01-15T23:56:05;7.50;99.20
